sensor_id;sensor_type;location;lat;lon;timestamp;P1;durP1;ratioP1;P2;durP2;ratioP2
7383;SDS011;3733;47.994;8.820;2023-06-05T00:01:05;8.67;;;6.00;;
7383;SDS011;3733;47.994;8.820;2023-06-05T00:03:31;10.93;;;6.77;;
7383;SDS011;3733;47.994;8.820;2023-06-05T00:05:58;10.43;;;6.43;;
7383;SDS011;3733;47.994;8.820;2023-06-05T00:08:24;9.93;;;6.70;;
7383;SDS011;3733;47.994;8.820;2023-06-05T00:10:49;9.10;;;5.90;;
7383;SDS011;3733;47.994;8.820;2023-06-05T00:13:15;9.90;;;6.60;;
7383;SDS011;3733;47.994;8.820;2023-06-05T00:15:41;9.33;;;6.50;;
7383;SDS011;3733;47.994;8.820;2023-06-05T00:18:06;12.60;;;6.70;;
7383;SDS011;3733;47.994;8.820;2023-06-05T00:20:33;11.23;;;6.70;;
7383;SDS011;3733;47.994;8.820;2023-06-05T00:22:59;9.00;;;6.87;;
7383;SDS011;3733;47.994;8.820;2023-06-05T00:25:24;7.60;;;6.30;;
7383;SDS011;3733;47.994;8.820;2023-06-05T00:27:50;10.20;;;7.53;;
7383;SDS011;3733;47.994;8.820;2023-06-05T00:30:16;9.80;;;6.80;;
7383;SDS011;3733;47.994;8.820;2023-06-05T00:32:41;10.70;;;6.50;;
7383;SDS011;3733;47.994;8.820;2023-06-05T00:35:07;9.60;;;6.10;;
7383;SDS011;3733;47.994;8.820;2023-06-05T00:37:34;8.03;;;6.00;;
7383;SDS011;3733;47.994;8.820;2023-06-05T00:40:00;7.23;;;6.00;;
7383;SDS011;3733;47.994;8.820;2023-06-05T00:42:25;9.37;;;6.57;;
7383;SDS011;3733;47.994;8.820;2023-06-05T00:44:51;10.67;;;7.27;;
7383;SDS011;3733;47.994;8.820;2023-06-05T00:47:17;8.90;;;6.83;;
7383;SDS011;3733;47.994;8.820;2023-06-05T00:49:44;11.67;;;6.83;;
7383;SDS011;3733;47.994;8.820;2023-06-05T00:52:10;9.77;;;6.63;;
7383;SDS011;3733;47.994;8.820;2023-06-05T00:54:36;9.47;;;6.70;;
7383;SDS011;3733;47.994;8.820;2023-06-05T00:57:02;11.80;;;7.20;;
7383;SDS011;3733;47.994;8.820;2023-06-05T00:59:29;8.97;;;6.37;;
7383;SDS011;3733;47.994;8.820;2023-06-05T01:01:57;8.80;;;6.60;;
7383;SDS011;3733;47.994;8.820;2023-06-05T01:04:23;7.40;;;6.33;;
7383;SDS011;3733;47.994;8.820;2023-06-05T01:06:49;12.23;;;6.47;;
7383;SDS011;3733;47.994;8.820;2023-06-05T01:09:16;9.80;;;6.80;;
7383;SDS011;3733;47.994;8.820;2023-06-05T01:11:46;8.67;;;6.37;;
7383;SDS011;3733;47.994;8.820;2023-06-05T01:14:24;17.30;;;7.43;;
7383;SDS011;3733;47.994;8.820;2023-06-05T01:16:53;12.10;;;7.30;;
7383;SDS011;3733;47.994;8.820;2023-06-05T01:19:21;9.40;;;6.17;;
7383;SDS011;3733;47.994;8.820;2023-06-05T01:21:49;8.53;;;6.50;;
7383;SDS011;3733;47.994;8.820;2023-06-05T01:24:16;10.00;;;7.03;;
7383;SDS011;3733;47.994;8.820;2023-06-05T01:29:25;10.57;;;6.37;;
7383;SDS011;3733;47.994;8.820;2023-06-05T01:35:04;10.13;;;6.70;;
7383;SDS011;3733;47.994;8.820;2023-06-05T01:37:32;9.20;;;6.70;;
7383;SDS011;3733;47.994;8.820;2023-06-05T01:40:05;9.53;;;6.70;;
7383;SDS011;3733;47.994;8.820;2023-06-05T01:42:37;9.23;;;6.60;;
7383;SDS011;3733;47.994;8.820;2023-06-05T01:45:05;9.43;;;6.77;;
7383;SDS011;3733;47.994;8.820;2023-06-05T01:47:32;11.53;;;6.90;;
7383;SDS011;3733;47.994;8.820;2023-06-05T01:50:03;10.50;;;5.90;;
7383;SDS011;3733;47.994;8.820;2023-06-05T01:52:30;9.37;;;6.50;;
7383;SDS011;3733;47.994;8.820;2023-06-05T01:54:56;10.23;;;6.70;;
7383;SDS011;3733;47.994;8.820;2023-06-05T01:57:29;11.10;;;7.13;;
7383;SDS011;3733;47.994;8.820;2023-06-05T01:59:56;10.17;;;6.27;;
7383;SDS011;3733;47.994;8.820;2023-06-05T02:02:22;7.60;;;6.13;;
7383;SDS011;3733;47.994;8.820;2023-06-05T02:04:48;8.30;;;6.73;;
7383;SDS011;3733;47.994;8.820;2023-06-05T02:07:14;8.47;;;6.23;;
7383;SDS011;3733;47.994;8.820;2023-06-05T02:09:40;11.63;;;6.97;;
7383;SDS011;3733;47.994;8.820;2023-06-05T02:12:06;9.17;;;6.93;;
7383;SDS011;3733;47.994;8.820;2023-06-05T02:14:32;10.37;;;6.70;;
7383;SDS011;3733;47.994;8.820;2023-06-05T02:17:01;11.93;;;6.80;;
7383;SDS011;3733;47.994;8.820;2023-06-05T02:19:31;10.57;;;6.67;;
7383;SDS011;3733;47.994;8.820;2023-06-05T02:21:57;10.20;;;6.70;;
7383;SDS011;3733;47.994;8.820;2023-06-05T02:24:22;9.10;;;6.53;;
7383;SDS011;3733;47.994;8.820;2023-06-05T02:26:50;8.40;;;6.80;;
7383;SDS011;3733;47.994;8.820;2023-06-05T02:29:15;8.17;;;6.60;;
7383;SDS011;3733;47.994;8.820;2023-06-05T02:31:41;9.00;;;6.93;;
7383;SDS011;3733;47.994;8.820;2023-06-05T02:34:06;14.80;;;6.80;;
7383;SDS011;3733;47.994;8.820;2023-06-05T02:36:32;11.70;;;6.60;;
7383;SDS011;3733;47.994;8.820;2023-06-05T02:39:01;9.77;;;6.23;;
7383;SDS011;3733;47.994;8.820;2023-06-05T02:41:29;11.60;;;7.50;;
7383;SDS011;3733;47.994;8.820;2023-06-05T02:43:55;11.20;;;7.37;;
7383;SDS011;3733;47.994;8.820;2023-06-05T02:46:21;9.23;;;6.50;;
7383;SDS011;3733;47.994;8.820;2023-06-05T02:48:49;9.63;;;6.40;;
7383;SDS011;3733;47.994;8.820;2023-06-05T02:51:18;9.73;;;6.80;;
7383;SDS011;3733;47.994;8.820;2023-06-05T02:53:44;9.30;;;7.23;;
7383;SDS011;3733;47.994;8.820;2023-06-05T02:56:10;10.60;;;7.50;;
7383;SDS011;3733;47.994;8.820;2023-06-05T02:58:35;10.10;;;6.47;;
7383;SDS011;3733;47.994;8.820;2023-06-05T03:01:02;9.30;;;6.77;;
7383;SDS011;3733;47.994;8.820;2023-06-05T03:03:31;10.20;;;7.17;;
7383;SDS011;3733;47.994;8.820;2023-06-05T03:06:00;9.93;;;6.33;;
7383;SDS011;3733;47.994;8.820;2023-06-05T03:08:32;13.00;;;6.30;;
7383;SDS011;3733;47.994;8.820;2023-06-05T03:11:00;14.13;;;7.80;;
7383;SDS011;3733;47.994;8.820;2023-06-05T03:13:26;9.07;;;6.70;;
7383;SDS011;3733;47.994;8.820;2023-06-05T03:15:52;9.17;;;6.67;;
7383;SDS011;3733;47.994;8.820;2023-06-05T03:18:19;10.57;;;6.73;;
7383;SDS011;3733;47.994;8.820;2023-06-05T03:20:46;14.83;;;7.00;;
7383;SDS011;3733;47.994;8.820;2023-06-05T03:23:13;10.30;;;6.60;;
7383;SDS011;3733;47.994;8.820;2023-06-05T03:25:38;10.03;;;7.53;;
7383;SDS011;3733;47.994;8.820;2023-06-05T03:28:04;14.77;;;7.10;;
7383;SDS011;3733;47.994;8.820;2023-06-05T03:30:29;13.60;;;7.80;;
7383;SDS011;3733;47.994;8.820;2023-06-05T03:32:55;9.63;;;6.70;;
7383;SDS011;3733;47.994;8.820;2023-06-05T03:35:20;12.10;;;7.40;;
7383;SDS011;3733;47.994;8.820;2023-06-05T03:37:46;9.47;;;7.50;;
7383;SDS011;3733;47.994;8.820;2023-06-05T03:40:12;9.27;;;7.07;;
7383;SDS011;3733;47.994;8.820;2023-06-05T03:42:37;13.07;;;6.70;;
7383;SDS011;3733;47.994;8.820;2023-06-05T03:45:03;12.53;;;8.00;;
7383;SDS011;3733;47.994;8.820;2023-06-05T03:47:29;11.97;;;7.67;;
7383;SDS011;3733;47.994;8.820;2023-06-05T03:49:55;15.27;;;7.40;;
7383;SDS011;3733;47.994;8.820;2023-06-05T03:52:21;10.20;;;7.60;;
7383;SDS011;3733;47.994;8.820;2023-06-05T03:54:48;9.50;;;7.00;;
7383;SDS011;3733;47.994;8.820;2023-06-05T03:57:18;9.70;;;6.70;;
7383;SDS011;3733;47.994;8.820;2023-06-05T03:59:45;9.67;;;7.70;;
7383;SDS011;3733;47.994;8.820;2023-06-05T04:02:11;10.20;;;6.70;;
7383;SDS011;3733;47.994;8.820;2023-06-05T04:04:37;10.00;;;7.23;;
7383;SDS011;3733;47.994;8.820;2023-06-05T04:07:03;10.07;;;6.90;;
7383;SDS011;3733;47.994;8.820;2023-06-05T04:09:30;9.90;;;7.00;;
7383;SDS011;3733;47.994;8.820;2023-06-05T04:11:56;10.67;;;6.53;;
7383;SDS011;3733;47.994;8.820;2023-06-05T04:14:22;11.40;;;7.50;;
7383;SDS011;3733;47.994;8.820;2023-06-05T04:16:48;10.60;;;7.40;;
7383;SDS011;3733;47.994;8.820;2023-06-05T04:19:14;14.20;;;8.40;;
7383;SDS011;3733;47.994;8.820;2023-06-05T04:21:40;9.83;;;6.63;;
7383;SDS011;3733;47.994;8.820;2023-06-05T04:24:06;15.87;;;7.73;;
7383;SDS011;3733;47.994;8.820;2023-06-05T04:26:34;10.90;;;7.30;;
7383;SDS011;3733;47.994;8.820;2023-06-05T04:29:04;12.13;;;7.17;;
7383;SDS011;3733;47.994;8.820;2023-06-05T04:31:43;12.63;;;8.77;;
7383;SDS011;3733;47.994;8.820;2023-06-05T04:34:10;13.80;;;7.23;;
7383;SDS011;3733;47.994;8.820;2023-06-05T04:36:37;10.07;;;7.33;;
7383;SDS011;3733;47.994;8.820;2023-06-05T04:39:03;14.17;;;7.17;;
7383;SDS011;3733;47.994;8.820;2023-06-05T04:41:32;10.40;;;7.73;;
7383;SDS011;3733;47.994;8.820;2023-06-05T04:43:59;11.93;;;8.03;;
7383;SDS011;3733;47.994;8.820;2023-06-05T04:46:25;14.60;;;7.73;;
7383;SDS011;3733;47.994;8.820;2023-06-05T04:48:52;10.90;;;7.73;;
7383;SDS011;3733;47.994;8.820;2023-06-05T04:51:20;11.97;;;7.20;;
7383;SDS011;3733;47.994;8.820;2023-06-05T04:53:47;13.03;;;7.47;;
7383;SDS011;3733;47.994;8.820;2023-06-05T04:56:17;11.90;;;6.83;;
7383;SDS011;3733;47.994;8.820;2023-06-05T04:58:45;11.63;;;7.87;;
7383;SDS011;3733;47.994;8.820;2023-06-05T05:01:12;12.47;;;7.80;;
7383;SDS011;3733;47.994;8.820;2023-06-05T05:03:38;11.23;;;7.03;;
7383;SDS011;3733;47.994;8.820;2023-06-05T05:06:07;11.73;;;7.70;;
7383;SDS011;3733;47.994;8.820;2023-06-05T05:08:33;10.70;;;7.10;;
7383;SDS011;3733;47.994;8.820;2023-06-05T05:11:01;20.17;;;9.03;;
7383;SDS011;3733;47.994;8.820;2023-06-05T05:13:27;17.17;;;8.27;;
7383;SDS011;3733;47.994;8.820;2023-06-05T05:15:52;15.70;;;9.07;;
7383;SDS011;3733;47.994;8.820;2023-06-05T05:18:19;13.70;;;8.20;;
7383;SDS011;3733;47.994;8.820;2023-06-05T05:20:45;13.50;;;8.37;;
7383;SDS011;3733;47.994;8.820;2023-06-05T05:23:11;12.90;;;8.50;;
7383;SDS011;3733;47.994;8.820;2023-06-05T05:25:39;13.73;;;8.73;;
7383;SDS011;3733;47.994;8.820;2023-06-05T05:28:05;11.27;;;8.60;;
7383;SDS011;3733;47.994;8.820;2023-06-05T05:30:31;17.40;;;10.00;;
7383;SDS011;3733;47.994;8.820;2023-06-05T05:32:57;15.43;;;8.30;;
7383;SDS011;3733;47.994;8.820;2023-06-05T05:35:23;17.10;;;9.80;;
7383;SDS011;3733;47.994;8.820;2023-06-05T05:37:49;14.03;;;8.37;;
7383;SDS011;3733;47.994;8.820;2023-06-05T05:40:14;19.03;;;8.97;;
7383;SDS011;3733;47.994;8.820;2023-06-05T05:42:41;13.03;;;9.47;;
7383;SDS011;3733;47.994;8.820;2023-06-05T05:45:06;11.63;;;8.40;;
7383;SDS011;3733;47.994;8.820;2023-06-05T05:47:33;18.47;;;9.87;;
7383;SDS011;3733;47.994;8.820;2023-06-05T05:49:58;20.13;;;9.63;;
7383;SDS011;3733;47.994;8.820;2023-06-05T05:52:24;12.17;;;8.37;;
7383;SDS011;3733;47.994;8.820;2023-06-05T05:54:50;14.67;;;8.80;;
7383;SDS011;3733;47.994;8.820;2023-06-05T05:57:17;16.00;;;8.40;;
7383;SDS011;3733;47.994;8.820;2023-06-05T05:59:43;15.50;;;9.50;;
7383;SDS011;3733;47.994;8.820;2023-06-05T06:02:10;13.20;;;8.97;;
7383;SDS011;3733;47.994;8.820;2023-06-05T06:04:36;16.80;;;8.93;;
7383;SDS011;3733;47.994;8.820;2023-06-05T06:07:03;25.23;;;9.03;;
7383;SDS011;3733;47.994;8.820;2023-06-05T06:09:30;19.23;;;9.50;;
7383;SDS011;3733;47.994;8.820;2023-06-05T06:11:56;17.53;;;9.43;;
7383;SDS011;3733;47.994;8.820;2023-06-05T06:14:22;18.57;;;9.50;;
7383;SDS011;3733;47.994;8.820;2023-06-05T06:16:48;22.40;;;9.60;;
7383;SDS011;3733;47.994;8.820;2023-06-05T06:19:15;16.73;;;10.13;;
7383;SDS011;3733;47.994;8.820;2023-06-05T06:21:41;27.27;;;10.17;;
7383;SDS011;3733;47.994;8.820;2023-06-05T06:24:07;13.60;;;9.50;;
7383;SDS011;3733;47.994;8.820;2023-06-05T06:26:34;18.70;;;11.10;;
7383;SDS011;3733;47.994;8.820;2023-06-05T06:29:03;13.97;;;10.10;;
7383;SDS011;3733;47.994;8.820;2023-06-05T06:31:28;19.83;;;11.23;;
7383;SDS011;3733;47.994;8.820;2023-06-05T06:33:54;18.93;;;10.33;;
7383;SDS011;3733;47.994;8.820;2023-06-05T06:36:19;12.70;;;9.00;;
7383;SDS011;3733;47.994;8.820;2023-06-05T06:38:47;20.33;;;10.50;;
7383;SDS011;3733;47.994;8.820;2023-06-05T06:41:12;24.37;;;10.53;;
7383;SDS011;3733;47.994;8.820;2023-06-05T06:43:38;23.63;;;10.97;;
7383;SDS011;3733;47.994;8.820;2023-06-05T06:46:04;27.83;;;10.27;;
7383;SDS011;3733;47.994;8.820;2023-06-05T06:48:30;19.20;;;10.87;;
7383;SDS011;3733;47.994;8.820;2023-06-05T06:50:57;19.10;;;10.67;;
7383;SDS011;3733;47.994;8.820;2023-06-05T06:53:23;18.53;;;9.90;;
7383;SDS011;3733;47.994;8.820;2023-06-05T06:55:48;22.37;;;10.80;;
7383;SDS011;3733;47.994;8.820;2023-06-05T06:58:14;14.40;;;9.80;;
7383;SDS011;3733;47.994;8.820;2023-06-05T07:00:39;20.20;;;8.90;;
7383;SDS011;3733;47.994;8.820;2023-06-05T07:03:05;18.40;;;9.50;;
7383;SDS011;3733;47.994;8.820;2023-06-05T07:05:31;14.90;;;8.33;;
7383;SDS011;3733;47.994;8.820;2023-06-05T07:07:57;15.60;;;8.93;;
7383;SDS011;3733;47.994;8.820;2023-06-05T07:10:26;17.90;;;10.90;;
7383;SDS011;3733;47.994;8.820;2023-06-05T07:12:54;18.77;;;9.27;;
7383;SDS011;3733;47.994;8.820;2023-06-05T07:15:20;17.23;;;9.83;;
7383;SDS011;3733;47.994;8.820;2023-06-05T07:17:46;20.70;;;9.77;;
7383;SDS011;3733;47.994;8.820;2023-06-05T07:20:11;16.40;;;8.77;;
7383;SDS011;3733;47.994;8.820;2023-06-05T07:22:41;12.03;;;8.70;;
7383;SDS011;3733;47.994;8.820;2023-06-05T07:25:08;16.13;;;8.87;;
7383;SDS011;3733;47.994;8.820;2023-06-05T07:27:37;16.37;;;8.60;;
7383;SDS011;3733;47.994;8.820;2023-06-05T07:30:05;15.43;;;9.40;;
7383;SDS011;3733;47.994;8.820;2023-06-05T07:32:31;13.80;;;8.60;;
7383;SDS011;3733;47.994;8.820;2023-06-05T07:34:57;13.07;;;9.57;;
7383;SDS011;3733;47.994;8.820;2023-06-05T07:37:22;15.87;;;9.43;;
7383;SDS011;3733;47.994;8.820;2023-06-05T07:39:48;14.97;;;8.27;;
7383;SDS011;3733;47.994;8.820;2023-06-05T07:42:16;16.93;;;7.67;;
7383;SDS011;3733;47.994;8.820;2023-06-05T07:44:41;13.90;;;7.57;;
7383;SDS011;3733;47.994;8.820;2023-06-05T07:47:07;11.20;;;7.60;;
7383;SDS011;3733;47.994;8.820;2023-06-05T07:49:33;12.60;;;6.90;;
7383;SDS011;3733;47.994;8.820;2023-06-05T07:51:58;9.23;;;6.90;;
7383;SDS011;3733;47.994;8.820;2023-06-05T07:54:24;12.20;;;7.10;;
7383;SDS011;3733;47.994;8.820;2023-06-05T07:56:50;11.20;;;7.33;;
7383;SDS011;3733;47.994;8.820;2023-06-05T07:59:16;9.30;;;6.33;;
7383;SDS011;3733;47.994;8.820;2023-06-05T08:01:42;16.37;;;6.87;;
7383;SDS011;3733;47.994;8.820;2023-06-05T08:04:08;14.73;;;6.80;;
7383;SDS011;3733;47.994;8.820;2023-06-05T08:06:36;9.17;;;5.63;;
7383;SDS011;3733;47.994;8.820;2023-06-05T08:09:03;9.67;;;6.57;;
7383;SDS011;3733;47.994;8.820;2023-06-05T08:11:29;6.97;;;5.43;;
7383;SDS011;3733;47.994;8.820;2023-06-05T08:13:55;9.90;;;6.47;;
7383;SDS011;3733;47.994;8.820;2023-06-05T08:16:21;12.93;;;5.97;;
7383;SDS011;3733;47.994;8.820;2023-06-05T08:18:46;6.60;;;5.30;;
7383;SDS011;3733;47.994;8.820;2023-06-05T08:21:12;10.00;;;5.63;;
7383;SDS011;3733;47.994;8.820;2023-06-05T08:23:38;10.30;;;4.80;;
7383;SDS011;3733;47.994;8.820;2023-06-05T08:26:04;10.47;;;5.70;;
7383;SDS011;3733;47.994;8.820;2023-06-05T08:28:39;11.50;;;6.10;;
7383;SDS011;3733;47.994;8.820;2023-06-05T08:31:06;10.80;;;5.70;;
7383;SDS011;3733;47.994;8.820;2023-06-05T08:33:35;9.63;;;6.40;;
7383;SDS011;3733;47.994;8.820;2023-06-05T08:36:02;8.40;;;5.67;;
7383;SDS011;3733;47.994;8.820;2023-06-05T08:38:29;11.97;;;5.60;;
7383;SDS011;3733;47.994;8.820;2023-06-05T08:41:05;10.03;;;5.13;;
7383;SDS011;3733;47.994;8.820;2023-06-05T08:43:42;9.23;;;4.73;;
7383;SDS011;3733;47.994;8.820;2023-06-05T08:46:09;8.33;;;5.37;;
7383;SDS011;3733;47.994;8.820;2023-06-05T08:48:43;7.10;;;5.33;;
7383;SDS011;3733;47.994;8.820;2023-06-05T08:51:12;6.43;;;4.80;;
7383;SDS011;3733;47.994;8.820;2023-06-05T08:53:40;13.73;;;5.33;;
7383;SDS011;3733;47.994;8.820;2023-06-05T08:56:07;10.80;;;5.60;;
7383;SDS011;3733;47.994;8.820;2023-06-05T08:58:33;15.53;;;6.10;;
7383;SDS011;3733;47.994;8.820;2023-06-05T09:01:00;7.07;;;5.77;;
7383;SDS011;3733;47.994;8.820;2023-06-05T09:03:26;9.80;;;5.27;;
7383;SDS011;3733;47.994;8.820;2023-06-05T09:05:52;13.10;;;5.20;;
7383;SDS011;3733;47.994;8.820;2023-06-05T09:08:19;11.63;;;5.30;;
7383;SDS011;3733;47.994;8.820;2023-06-05T09:11:18;32.07;;;6.50;;
7383;SDS011;3733;47.994;8.820;2023-06-05T09:13:47;6.03;;;5.23;;
7383;SDS011;3733;47.994;8.820;2023-06-05T09:16:13;6.57;;;5.60;;
7383;SDS011;3733;47.994;8.820;2023-06-05T09:18:53;7.33;;;5.30;;
7383;SDS011;3733;47.994;8.820;2023-06-05T09:21:23;7.40;;;5.10;;
7383;SDS011;3733;47.994;8.820;2023-06-05T09:24:11;8.70;;;5.87;;
7383;SDS011;3733;47.994;8.820;2023-06-05T09:26:45;7.50;;;5.10;;
7383;SDS011;3733;47.994;8.820;2023-06-05T09:29:11;8.60;;;5.40;;
7383;SDS011;3733;47.994;8.820;2023-06-05T09:31:40;9.40;;;5.70;;
7383;SDS011;3733;47.994;8.820;2023-06-05T09:34:07;7.20;;;5.67;;
7383;SDS011;3733;47.994;8.820;2023-06-05T09:36:33;12.00;;;5.17;;
7383;SDS011;3733;47.994;8.820;2023-06-05T09:39:13;8.13;;;5.10;;
7383;SDS011;3733;47.994;8.820;2023-06-05T09:41:42;7.80;;;5.40;;
7383;SDS011;3733;47.994;8.820;2023-06-05T09:44:09;7.63;;;5.20;;
7383;SDS011;3733;47.994;8.820;2023-06-05T09:46:37;8.17;;;4.97;;
7383;SDS011;3733;47.994;8.820;2023-06-05T09:49:16;8.27;;;5.50;;
7383;SDS011;3733;47.994;8.820;2023-06-05T09:51:45;7.10;;;5.23;;
7383;SDS011;3733;47.994;8.820;2023-06-05T09:54:12;6.07;;;5.20;;
7383;SDS011;3733;47.994;8.820;2023-06-05T09:56:39;10.20;;;5.70;;
7383;SDS011;3733;47.994;8.820;2023-06-05T09:59:08;11.60;;;5.60;;
7383;SDS011;3733;47.994;8.820;2023-06-05T10:01:41;14.40;;;5.67;;
7383;SDS011;3733;47.994;8.820;2023-06-05T10:04:09;7.70;;;5.80;;
7383;SDS011;3733;47.994;8.820;2023-06-05T10:06:36;7.40;;;5.50;;
7383;SDS011;3733;47.994;8.820;2023-06-05T10:09:03;10.90;;;5.33;;
7383;SDS011;3733;47.994;8.820;2023-06-05T10:11:29;8.90;;;5.77;;
7383;SDS011;3733;47.994;8.820;2023-06-05T10:13:55;6.70;;;5.63;;
7383;SDS011;3733;47.994;8.820;2023-06-05T10:16:25;7.17;;;5.83;;
7383;SDS011;3733;47.994;8.820;2023-06-05T10:18:53;8.90;;;5.57;;
7383;SDS011;3733;47.994;8.820;2023-06-05T10:21:21;10.40;;;5.80;;
7383;SDS011;3733;47.994;8.820;2023-06-05T10:26:22;9.97;;;5.30;;
7383;SDS011;3733;47.994;8.820;2023-06-05T10:32:05;9.10;;;5.90;;
7383;SDS011;3733;47.994;8.820;2023-06-05T10:40:10;9.20;;;5.80;;
7383;SDS011;3733;47.994;8.820;2023-06-05T10:42:36;9.57;;;6.00;;
7383;SDS011;3733;47.994;8.820;2023-06-05T10:45:02;9.03;;;5.47;;
7383;SDS011;3733;47.994;8.820;2023-06-05T10:52:41;11.53;;;5.33;;
7383;SDS011;3733;47.994;8.820;2023-06-05T10:55:07;12.23;;;5.30;;
7383;SDS011;3733;47.994;8.820;2023-06-05T11:00:20;7.00;;;4.90;;
7383;SDS011;3733;47.994;8.820;2023-06-05T11:02:47;7.10;;;5.10;;
7383;SDS011;3733;47.994;8.820;2023-06-05T11:05:12;7.60;;;5.80;;
7383;SDS011;3733;47.994;8.820;2023-06-05T11:07:39;7.10;;;5.30;;
7383;SDS011;3733;47.994;8.820;2023-06-05T11:10:05;8.00;;;5.33;;
7383;SDS011;3733;47.994;8.820;2023-06-05T11:15:00;6.10;;;5.13;;
7383;SDS011;3733;47.994;8.820;2023-06-05T11:19:57;7.53;;;5.20;;
7383;SDS011;3733;47.994;8.820;2023-06-05T11:22:23;7.57;;;5.27;;
7383;SDS011;3733;47.994;8.820;2023-06-05T11:30:18;9.37;;;5.23;;
7383;SDS011;3733;47.994;8.820;2023-06-05T11:32:45;6.07;;;4.50;;
7383;SDS011;3733;47.994;8.820;2023-06-05T11:35:11;8.77;;;5.70;;
7383;SDS011;3733;47.994;8.820;2023-06-05T11:37:37;10.73;;;5.53;;
7383;SDS011;3733;47.994;8.820;2023-06-05T11:40:05;5.80;;;5.00;;
7383;SDS011;3733;47.994;8.820;2023-06-05T11:42:38;7.00;;;5.40;;
7383;SDS011;3733;47.994;8.820;2023-06-05T11:45:10;6.20;;;4.70;;
7383;SDS011;3733;47.994;8.820;2023-06-05T11:47:36;7.83;;;5.70;;
7383;SDS011;3733;47.994;8.820;2023-06-05T11:50:12;7.80;;;5.30;;
7383;SDS011;3733;47.994;8.820;2023-06-05T11:52:39;5.53;;;4.93;;
7383;SDS011;3733;47.994;8.820;2023-06-05T11:55:15;9.87;;;5.70;;
7383;SDS011;3733;47.994;8.820;2023-06-05T11:57:45;6.30;;;4.80;;
7383;SDS011;3733;47.994;8.820;2023-06-05T12:00:15;10.93;;;5.43;;
7383;SDS011;3733;47.994;8.820;2023-06-05T12:02:47;11.00;;;5.90;;
7383;SDS011;3733;47.994;8.820;2023-06-05T12:05:14;9.10;;;5.50;;
7383;SDS011;3733;47.994;8.820;2023-06-05T12:07:40;8.10;;;5.13;;
7383;SDS011;3733;47.994;8.820;2023-06-05T12:10:07;8.93;;;5.60;;
7383;SDS011;3733;47.994;8.820;2023-06-05T12:12:33;7.53;;;5.17;;
7383;SDS011;3733;47.994;8.820;2023-06-05T12:15:18;6.93;;;5.10;;
7383;SDS011;3733;47.994;8.820;2023-06-05T12:17:52;9.10;;;5.90;;
7383;SDS011;3733;47.994;8.820;2023-06-05T12:20:18;7.93;;;5.53;;
7383;SDS011;3733;47.994;8.820;2023-06-05T12:22:45;7.83;;;5.00;;
7383;SDS011;3733;47.994;8.820;2023-06-05T12:25:21;6.27;;;5.13;;
7383;SDS011;3733;47.994;8.820;2023-06-05T12:27:50;8.60;;;5.20;;
7383;SDS011;3733;47.994;8.820;2023-06-05T12:30:17;15.53;;;5.10;;
7383;SDS011;3733;47.994;8.820;2023-06-05T12:32:43;7.90;;;4.90;;
7383;SDS011;3733;47.994;8.820;2023-06-05T12:35:21;6.67;;;4.60;;
7383;SDS011;3733;47.994;8.820;2023-06-05T12:37:48;14.60;;;5.40;;
7383;SDS011;3733;47.994;8.820;2023-06-05T12:40:14;5.27;;;4.60;;
7383;SDS011;3733;47.994;8.820;2023-06-05T12:42:46;9.47;;;4.93;;
7383;SDS011;3733;47.994;8.820;2023-06-05T12:45:12;8.27;;;4.80;;
7383;SDS011;3733;47.994;8.820;2023-06-05T12:47:38;6.47;;;4.93;;
7383;SDS011;3733;47.994;8.820;2023-06-05T12:50:06;8.80;;;5.47;;
7383;SDS011;3733;47.994;8.820;2023-06-05T12:52:36;5.90;;;4.90;;
7383;SDS011;3733;47.994;8.820;2023-06-05T12:55:03;10.30;;;4.80;;
7383;SDS011;3733;47.994;8.820;2023-06-05T12:57:30;8.60;;;5.10;;
7383;SDS011;3733;47.994;8.820;2023-06-05T12:59:57;5.60;;;5.00;;
7383;SDS011;3733;47.994;8.820;2023-06-05T13:02:23;6.60;;;5.13;;
7383;SDS011;3733;47.994;8.820;2023-06-05T13:04:49;7.83;;;5.50;;
7383;SDS011;3733;47.994;8.820;2023-06-05T13:07:15;6.70;;;5.00;;
7383;SDS011;3733;47.994;8.820;2023-06-05T13:09:41;10.77;;;4.87;;
7383;SDS011;3733;47.994;8.820;2023-06-05T13:12:07;15.57;;;5.40;;
7383;SDS011;3733;47.994;8.820;2023-06-05T13:14:33;9.00;;;4.70;;
7383;SDS011;3733;47.994;8.820;2023-06-05T13:17:00;7.13;;;5.30;;
7383;SDS011;3733;47.994;8.820;2023-06-05T13:19:25;7.23;;;6.53;;
7383;SDS011;3733;47.994;8.820;2023-06-05T13:21:51;6.55;;;5.43;;
7383;SDS011;3733;47.994;8.820;2023-06-05T13:24:17;5.32;;;4.82;;
7383;SDS011;3733;47.994;8.820;2023-06-05T13:26:43;7.20;;;4.85;;
7383;SDS011;3733;47.994;8.820;2023-06-05T13:29:10;9.35;;;4.93;;
7383;SDS011;3733;47.994;8.820;2023-06-05T13:31:36;8.82;;;4.95;;
7383;SDS011;3733;47.994;8.820;2023-06-05T13:34:02;5.13;;;4.50;;
7383;SDS011;3733;47.994;8.820;2023-06-05T13:36:28;5.65;;;4.15;;
7383;SDS011;3733;47.994;8.820;2023-06-05T13:38:53;6.88;;;4.78;;
7383;SDS011;3733;47.994;8.820;2023-06-05T13:41:20;5.85;;;4.13;;
7383;SDS011;3733;47.994;8.820;2023-06-05T13:43:49;6.82;;;4.80;;
7383;SDS011;3733;47.994;8.820;2023-06-05T13:46:15;7.72;;;5.22;;
7383;SDS011;3733;47.994;8.820;2023-06-05T13:48:40;6.13;;;4.90;;
7383;SDS011;3733;47.994;8.820;2023-06-05T13:51:06;5.88;;;4.82;;
7383;SDS011;3733;47.994;8.820;2023-06-05T13:53:31;8.13;;;5.03;;
7383;SDS011;3733;47.994;8.820;2023-06-05T13:56:03;7.50;;;5.00;;
7383;SDS011;3733;47.994;8.820;2023-06-05T13:58:29;8.20;;;5.07;;
7383;SDS011;3733;47.994;8.820;2023-06-05T14:00:56;5.80;;;5.20;;
7383;SDS011;3733;47.994;8.820;2023-06-05T14:03:23;6.90;;;5.67;;
7383;SDS011;3733;47.994;8.820;2023-06-05T14:05:49;10.57;;;6.63;;
7383;SDS011;3733;47.994;8.820;2023-06-05T14:08:15;11.73;;;6.20;;
7383;SDS011;3733;47.994;8.820;2023-06-05T14:10:40;11.23;;;7.57;;
7383;SDS011;3733;47.994;8.820;2023-06-05T14:13:06;5.83;;;4.93;;
7383;SDS011;3733;47.994;8.820;2023-06-05T14:15:32;10.10;;;5.53;;
7383;SDS011;3733;47.994;8.820;2023-06-05T14:17:59;6.77;;;5.17;;
7383;SDS011;3733;47.994;8.820;2023-06-05T14:20:26;7.90;;;5.20;;
7383;SDS011;3733;47.994;8.820;2023-06-05T14:22:52;7.30;;;5.43;;
7383;SDS011;3733;47.994;8.820;2023-06-05T14:25:17;5.70;;;5.13;;
7383;SDS011;3733;47.994;8.820;2023-06-05T14:27:44;6.03;;;4.67;;
7383;SDS011;3733;47.994;8.820;2023-06-05T14:30:10;8.37;;;5.33;;
7383;SDS011;3733;47.994;8.820;2023-06-05T14:32:36;8.00;;;5.93;;
7383;SDS011;3733;47.994;8.820;2023-06-05T14:35:01;8.07;;;5.50;;
7383;SDS011;3733;47.994;8.820;2023-06-05T14:37:27;6.77;;;4.93;;
7383;SDS011;3733;47.994;8.820;2023-06-05T14:39:53;7.57;;;5.30;;
7383;SDS011;3733;47.994;8.820;2023-06-05T14:42:19;11.30;;;5.40;;
7383;SDS011;3733;47.994;8.820;2023-06-05T14:44:48;5.73;;;5.03;;
7383;SDS011;3733;47.994;8.820;2023-06-05T14:47:14;7.90;;;5.50;;
7383;SDS011;3733;47.994;8.820;2023-06-05T14:49:39;11.23;;;5.47;;
7383;SDS011;3733;47.994;8.820;2023-06-05T14:52:05;9.03;;;5.50;;
7383;SDS011;3733;47.994;8.820;2023-06-05T14:54:31;10.87;;;5.33;;
7383;SDS011;3733;47.994;8.820;2023-06-05T14:56:57;11.33;;;5.53;;
7383;SDS011;3733;47.994;8.820;2023-06-05T14:59:22;12.40;;;5.90;;
7383;SDS011;3733;47.994;8.820;2023-06-05T15:01:48;7.53;;;5.47;;
7383;SDS011;3733;47.994;8.820;2023-06-05T15:04:13;16.00;;;5.90;;
7383;SDS011;3733;47.994;8.820;2023-06-05T15:06:39;9.57;;;5.87;;
7383;SDS011;3733;47.994;8.820;2023-06-05T15:09:05;11.33;;;6.40;;
7383;SDS011;3733;47.994;8.820;2023-06-05T15:11:31;10.03;;;7.83;;
7383;SDS011;3733;47.994;8.820;2023-06-05T15:13:57;11.70;;;6.30;;
7383;SDS011;3733;47.994;8.820;2023-06-05T15:16:23;7.77;;;5.97;;
7383;SDS011;3733;47.994;8.820;2023-06-05T15:18:49;8.93;;;5.30;;
7383;SDS011;3733;47.994;8.820;2023-06-05T15:21:15;10.80;;;5.87;;
7383;SDS011;3733;47.994;8.820;2023-06-05T15:23:41;18.73;;;6.70;;
7383;SDS011;3733;47.994;8.820;2023-06-05T15:26:07;16.20;;;5.60;;
7383;SDS011;3733;47.994;8.820;2023-06-05T15:28:32;8.67;;;5.43;;
7383;SDS011;3733;47.994;8.820;2023-06-05T15:30:58;12.90;;;6.37;;
7383;SDS011;3733;47.994;8.820;2023-06-05T15:33:23;7.77;;;5.43;;
7383;SDS011;3733;47.994;8.820;2023-06-05T15:35:49;7.40;;;4.83;;
7383;SDS011;3733;47.994;8.820;2023-06-05T15:38:15;7.27;;;5.10;;
7383;SDS011;3733;47.994;8.820;2023-06-05T15:40:40;8.50;;;5.93;;
7383;SDS011;3733;47.994;8.820;2023-06-05T15:43:07;7.27;;;5.50;;